Time;durP1;ratioP1;P1;durP2;ratioP2;P2;SDS_P1;SDS_P2;PMS_P1;PMS_P2;Temp;Humidity;BMP_temperature;BMP_pressure;BME280_temperature;BME280_humidity;BME280_pressure;Samples;Min_cycle;Max_cycle;Signal;HPM_P1;HPM_P2
2023/02/14 00:00:54;;;;;;;;;;;;;;;28.44;67.99;101124.56;5096206;27;70231;-36
2023/02/14 00:03:25;;;;;;;;;;;;;;;28.46;68.30;101122.50;5096686;27;66838;-39
2023/02/14 00:05:55;;;;;;;;;;;;;;;28.51;68.64;101119.22;5098083;27;69844;-41
2023/02/14 00:08:25;;;;;;;;;;;;;;;28.56;68.57;101115.94;5091588;27;66363;-38
2023/02/14 00:10:55;;;;;;;;;;;;;;;28.59;68.30;101126.34;5097291;27;70001;-38
2023/02/14 00:13:25;;;;;;;;;;;;;;;28.61;68.54;101129.66;5094011;27;66039;-38
2023/02/14 00:15:55;;;;;;;;;;;;;;;28.62;68.46;101126.75;5099764;27;70302;-37
2023/02/14 00:21:14;;;;;;;;;;;;;;;28.68;68.88;101135.94;5093903;27;70023;-37
2023/02/14 00:23:44;;;;;;;;;;;;;;;28.68;68.75;101130.53;5085736;27;66137;-38
2023/02/14 00:26:15;;;;;;;;;;;;;;;28.72;69.22;101135.34;5078366;27;69252;-38
2023/02/14 00:28:45;;;;;;;;;;;;;;;28.73;69.22;101133.47;5058266;27;65740;-38
2023/02/14 00:31:16;;;;;;;;;;;;;;;28.75;68.82;101142.19;5072233;27;69877;-38
2023/02/14 00:33:46;;;;;;;;;;;;;;;28.77;68.81;101140.13;5088284;27;65413;-38
2023/02/14 00:36:18;;;;;;;;;;;;;;;28.77;68.79;101140.13;5097956;27;70014;-37
2023/02/14 00:38:50;;;;;;;;;;;;;;;28.79;68.75;101138.06;5077071;27;66497;-37
2023/02/14 00:41:20;;;;;;;;;;;;;;;28.80;69.14;101138.88;5090753;27;69784;-37
2023/02/14 00:43:51;;;;;;;;;;;;;;;28.82;69.15;101142.22;5092310;27;66077;-37
2023/02/14 00:46:24;;;;;;;;;;;;;;;28.85;69.33;101142.66;5094799;27;69414;-38
2023/02/14 00:48:55;;;;;;;;;;;;;;;28.88;69.02;101153.06;5075773;27;66185;-39
2023/02/14 00:51:26;;;;;;;;;;;;;;;28.90;69.45;101161.81;5094333;27;70269;-36
2023/02/14 00:53:56;;;;;;;;;;;;;;;28.92;70.00;101143.53;5092805;27;66104;-38
2023/02/14 00:56:26;;;;;;;;;;;;;;;28.92;69.82;101159.75;5095617;27;71508;-38
2023/02/14 00:58:56;;;;;;;;;;;;;;;28.94;69.61;101157.66;5074139;27;65672;-37
2023/02/14 01:01:27;;;;;;;;;;;;;;;28.98;70.14;101162.69;5094065;27;70388;-38
2023/02/14 01:03:57;;;;;;;;;;;;;;;28.91;68.50;101163.44;5097821;27;66221;-36
2023/02/14 01:06:27;;;;;;;;;;;;;;;28.91;67.81;101168.84;5093182;27;69349;-36
2023/02/14 01:08:58;;;;;;;;;;;;;;;28.93;66.87;101172.19;5098076;27;64608;-35
2023/02/14 01:11:28;;;;;;;;;;;;;;;28.95;66.96;101172.84;5075477;27;70065;-39
2023/02/14 01:13:58;;;;;;;;;;;;;;;28.96;66.49;101177.19;5075464;27;66747;-36
2023/02/14 01:16:28;;;;;;;;;;;;;;;28.99;66.15;101175.97;5101509;27;70622;-37
2023/02/14 01:18:59;;;;;;;;;;;;;;;29.02;66.27;101169.31;5098948;27;68139;-36
2023/02/14 01:21:31;;;;;;;;;;;;;;;29.03;65.63;101184.50;5097690;27;69067;-37
2023/02/14 01:24:03;;;;;;;;;;;;;;;29.05;65.49;101190.56;5085835;27;66512;-36
2023/02/14 01:26:35;;;;;;;;;;;;;;;29.06;65.72;101193.06;5089544;27;70107;-35
2023/02/14 01:29:05;;;;;;;;;;;;;;;29.09;65.70;101202.66;5096357;27;66152;-37
2023/02/14 01:31:35;;;;;;;;;;;;;;;29.08;65.51;101190.16;5079381;27;70581;-37
2023/02/14 01:34:05;;;;;;;;;;;;;;;29.10;64.93;101197.03;5085119;27;65921;-36
2023/02/14 01:36:37;;;;;;;;;;;;;;;29.12;65.25;101203.06;5095583;27;70602;-36
2023/02/14 01:39:10;;;;;;;;;;;;;;;29.14;65.26;101205.56;5084418;27;66599;-36
2023/02/14 01:41:41;;;;;;;;;;;;;;;29.16;64.46;101214.31;5093395;27;70014;-38
2023/02/14 01:44:14;;;;;;;;;;;;;;;29.17;64.75;101206.00;5094200;27;65208;-35
2023/02/14 01:46:45;;;;;;;;;;;;;;;29.20;64.58;101207.47;5093084;27;68857;-37
2023/02/14 01:49:15;;;;;;;;;;;;;;;29.22;64.46;101213.50;5094710;27;66374;-37
2023/02/14 01:51:48;;;;;;;;;;;;;;;29.23;64.35;101209.78;5098081;27;69568;-36
2023/02/14 01:54:22;;;;;;;;;;;;;;;29.25;63.82;101207.69;5093685;27;65573;-37
2023/02/14 01:57:00;;;;;;;;;;;;;;;29.27;64.21;101205.63;5085483;27;69663;-37
2023/02/14 01:59:33;;;;;;;;;;;;;;;29.29;63.68;101225.19;5075664;27;66648;-37
2023/02/14 02:02:04;;;;;;;;;;;;;;;29.30;63.86;101226.84;5078490;27;70226;-36
2023/02/14 02:04:37;;;;;;;;;;;;;;;29.33;63.45;101225.59;5089112;27;66523;-36
2023/02/14 02:07:14;;;;;;;;;;;;;;;29.35;63.72;101228.94;5088087;27;70230;-37
2023/02/14 02:09:49;;;;;;;;;;;;;;;29.36;63.43;101226.06;5093102;27;66209;-36
2023/02/14 02:12:20;;;;;;;;;;;;;;;29.39;63.65;101231.03;5095213;27;70351;-35
2023/02/14 02:14:51;;;;;;;;;;;;;;;29.41;62.98;101228.13;5072156;27;66106;-36
2023/02/14 02:17:29;;;;;;;;;;;;;;;29.43;63.28;101219.81;5087929;27;70779;-37
2023/02/14 02:20:17;;;;;;;;;;;;;;;29.46;63.01;101232.94;5089288;27;66152;-36
2023/02/14 02:22:59;;;;;;;;;;;;;;;29.48;63.34;101228.16;5095819;27;70977;-36
2023/02/14 02:25:45;;;;;;;;;;;;;;;29.50;63.01;101236.88;5098410;27;67042;-37
2023/02/14 02:28:33;;;;;;;;;;;;;;;29.53;62.71;101236.47;5088238;27;69960;-36
2023/02/14 02:31:21;;;;;;;;;;;;;;;29.55;63.04;101229.00;5088124;27;66344;-36
2023/02/14 02:34:11;;;;;;;;;;;;;;;29.57;62.44;101235.06;5091572;27;69952;-35
2023/02/14 02:37:04;;;;;;;;;;;;;;;29.59;62.34;101233.81;5093498;27;66139;-38
2023/02/14 02:40:07;;;;;;;;;;;;;;;29.62;62.26;101229.88;5087063;27;69479;-37
2023/02/14 02:42:40;;;;;;;;;;;;;;;29.64;62.78;101238.63;5045264;27;66191;-36
2023/02/14 02:45:31;;;;;;;;;;;;;;;29.67;62.62;101238.25;5070735;27;70127;-35
2023/02/14 02:48:08;;;;;;;;;;;;;;;29.69;62.02;101227.22;5085974;27;67033;-36
2023/02/14 02:53:35;;;;;;;;;;;;;;;29.72;62.36;101224.91;5094159;27;65889;-38
2023/02/14 02:58:58;;;;;;;;;;;;;;;29.76;62.37;101214.56;5079859;27;66180;-36
2023/02/14 03:01:33;;;;;;;;;;;;;;;29.77;62.08;101217.03;5074257;27;69519;-36
2023/02/14 03:06:56;;;;;;;;;;;;;;;29.83;62.01;101215.38;5076354;27;69953;-37
2023/02/14 03:09:28;;;;;;;;;;;;;;;29.86;61.75;101208.72;5080104;27;66053;-36
2023/02/14 03:12:20;;;;;;;;;;;;;;;29.89;62.03;101202.91;5095954;27;69346;-36
2023/02/14 03:14:55;;;;;;;;;;;;;;;29.91;61.44;101201.66;5081415;27;66691;-37
2023/02/14 03:17:32;;;;;;;;;;;;;;;29.94;61.40;101203.13;5070857;27;69568;-38
2023/02/14 03:20:14;;;;;;;;;;;;;;;29.96;61.34;101192.94;5098681;27;66362;-37
2023/02/14 03:22:56;;;;;;;;;;;;;;;29.99;61.92;101192.53;5094672;27;70125;-38
2023/02/14 03:25:36;;;;;;;;;;;;;;;30.00;61.76;101189.59;5086130;27;65863;-35
2023/02/14 03:28:06;;;;;;;;;;;;;;;30.04;61.04;101190.03;5074511;27;69891;-36
2023/02/14 03:30:53;;;;;;;;;;;;;;;30.07;61.48;101184.22;5087195;27;65575;-37
2023/02/14 03:33:25;;;;;;;;;;;;;;;30.09;61.21;101187.53;5077812;27;70908;-36
2023/02/14 03:39:18;;;;;;;;;;;;;;;30.16;60.60;101180.25;5067161;27;69377;-37
2023/02/14 03:41:51;;;;;;;;;;;;;;;30.19;60.75;101181.72;5095432;27;66992;-37
2023/02/14 03:44:27;;;;;;;;;;;;;;;30.20;60.79;101173.41;5096846;27;70481;-37
2023/02/14 03:47:03;;;;;;;;;;;;;;;30.22;60.60;101171.31;5078207;27;66880;-37
2023/02/14 03:49:37;;;;;;;;;;;;;;;30.26;60.90;101163.63;5093404;27;70344;-36
2023/02/14 03:52:08;;;;;;;;;;;;;;;30.28;60.43;101162.38;5097578;27;66140;-38
2023/02/14 03:54:39;;;;;;;;;;;;;;;30.32;60.48;101159.25;5102431;27;70137;-37
2023/02/14 03:57:20;;;;;;;;;;;;;;;30.34;60.14;101160.72;5098712;27;67062;-37
2023/02/14 03:59:50;;;;;;;;;;;;;;;30.37;60.02;101151.31;5089308;27;70481;-37
2023/02/14 04:02:43;;;;;;;;;;;;;;;30.39;60.43;101139.25;5094060;27;66704;-38
2023/02/14 04:05:16;;;;;;;;;;;;;;;30.42;59.80;101138.00;5071758;27;69848;-37
2023/02/14 04:07:48;;;;;;;;;;;;;;;30.45;59.95;101129.44;5089553;27;65730;-37
2023/02/14 04:10:19;;;;;;;;;;;;;;;30.46;59.91;101123.84;5095774;27;70535;-36
2023/02/14 04:12:49;;;;;;;;;;;;;;;30.49;59.96;101122.59;5092190;27;67098;-36
2023/02/14 04:15:19;;;;;;;;;;;;;;;30.51;60.11;101115.09;5100472;27;69510;-37
2023/02/14 04:20:38;;;;;;;;;;;;;;;30.57;59.32;101102.56;5095774;27;69916;-37
2023/02/14 04:23:08;;;;;;;;;;;;;;;30.58;59.20;101088.81;5096034;27;66323;-37
2023/02/14 04:25:41;;;;;;;;;;;;;;;30.61;59.26;101082.97;5093383;27;69590;-37
2023/02/14 04:28:12;;;;;;;;;;;;;;;30.62;59.23;101079.22;5103880;27;66978;-43
2023/02/14 04:30:42;;;;;;;;;;;;;;;30.65;59.32;101073.38;5098497;27;70624;-36
2023/02/14 04:33:12;;;;;;;;;;;;;;;30.66;59.19;101075.03;5096397;27;66579;-38
2023/02/14 04:35:42;;;;;;;;;;;;;;;30.69;58.60;101068.34;5097841;27;69135;-37
2023/02/14 04:38:12;;;;;;;;;;;;;;;30.70;59.12;101060.03;5095935;27;65929;-37
2023/02/14 04:40:42;;;;;;;;;;;;;;;30.71;58.83;101058.16;5081346;27;70607;-37
2023/02/14 04:43:13;;;;;;;;;;;;;;;30.73;58.68;101047.94;5098579;27;66852;-36
2023/02/14 04:45:43;;;;;;;;;;;;;;;30.76;58.46;101038.53;5090696;27;70519;-38
2023/02/14 04:48:13;;;;;;;;;;;;;;;30.76;58.31;101036.69;5095597;27;66206;-37
2023/02/14 04:50:43;;;;;;;;;;;;;;;30.78;58.70;101036.44;5095350;27;69719;-38
2023/02/14 04:53:13;;;;;;;;;;;;;;;30.78;58.73;101036.44;5091689;27;66217;-37
2023/02/14 04:55:44;;;;;;;;;;;;;;;30.78;58.28;101022.91;5068496;27;70698;-37
2023/02/14 04:58:14;;;;;;;;;;;;;;;30.79;58.20;101024.59;5086810;27;65352;-37
2023/02/14 05:00:44;;;;;;;;;;;;;;;30.80;58.82;101005.44;5093918;27;69568;-37
2023/02/14 05:03:15;;;;;;;;;;;;;;;30.81;58.33;100996.25;5073227;27;66958;-37
2023/02/14 05:05:45;;;;;;;;;;;;;;;30.84;57.95;100994.97;5088340;27;69873;-35
2023/02/14 05:08:15;;;;;;;;;;;;;;;30.87;58.27;100994.53;5085325;27;66645;-36
2023/02/14 05:10:46;;;;;;;;;;;;;;;30.87;58.04;100989.13;5084497;27;70454;-36
2023/02/14 05:13:16;;;;;;;;;;;;;;;30.88;57.96;100982.69;5062835;27;66359;-36
2023/02/14 05:15:47;;;;;;;;;;;;;;;30.91;58.38;100976.81;5098196;27;69203;-36
2023/02/14 05:18:17;;;;;;;;;;;;;;;30.91;58.33;100968.69;5097859;27;65662;-38
2023/02/14 05:20:51;;;;;;;;;;;;;;;30.91;57.88;100964.09;5099984;27;70659;-37
2023/02/14 05:23:21;;;;;;;;;;;;;;;30.93;57.78;100950.34;5054123;27;66268;-38
2023/02/14 05:25:51;;;;;;;;;;;;;;;30.95;58.37;100948.25;5080082;27;70353;-37
2023/02/14 05:28:21;;;;;;;;;;;;;;;30.96;57.91;100941.78;5093608;27;67098;-36
2023/02/14 05:30:52;;;;;;;;;;;;;;;31.00;57.72;100939.47;5094854;27;70447;-37
2023/02/14 05:33:22;;;;;;;;;;;;;;;31.02;58.21;100940.09;5094933;27;66576;-36
2023/02/14 05:35:53;;;;;;;;;;;;;;;31.03;58.20;100929.00;5097540;27;70211;-37
2023/02/14 05:38:23;;;;;;;;;;;;;;;31.05;57.91;100920.69;5093938;27;66511;-39
2023/02/14 05:40:53;;;;;;;;;;;;;;;31.07;57.79;100924.81;5095057;27;70129;-36
2023/02/14 05:43:23;;;;;;;;;;;;;;;31.08;57.77;100910.22;5094182;27;66104;-37
2023/02/14 05:45:54;;;;;;;;;;;;;;;31.10;57.48;100913.53;5094271;27;69930;-37
2023/02/14 05:48:24;;;;;;;;;;;;;;;31.13;57.45;100906.84;5098377;27;66010;-36
2023/02/14 05:50:54;;;;;;;;;;;;;;;31.15;57.80;100894.75;5092532;27;70586;-37
2023/02/14 05:53:24;;;;;;;;;;;;;;;31.19;57.55;100895.13;5095920;27;66664;-36
2023/02/14 05:55:55;;;;;;;;;;;;;;;31.22;57.44;100891.13;5094376;27;70207;-36
2023/02/14 05:58:25;;;;;;;;;;;;;;;31.24;57.29;100889.03;5076170;27;66001;-35
2023/02/14 06:00:58;;;;;;;;;;;;;;;31.24;57.51;100884.44;5078196;27;69137;-37
2023/02/14 06:03:30;;;;;;;;;;;;;;;31.27;57.54;100875.03;5097161;27;66957;-37
2023/02/14 06:06:00;;;;;;;;;;;;;;;31.29;57.41;100867.53;5096286;27;70726;-37
2023/02/14 06:08:30;;;;;;;;;;;;;;;31.32;57.13;100867.06;5068809;27;66844;-37
2023/02/14 06:11:00;;;;;;;;;;;;;;;31.34;57.16;100862.25;5097511;27;70702;-37
2023/02/14 06:13:30;;;;;;;;;;;;;;;31.36;56.90;100865.59;5094011;27;65806;-37
2023/02/14 06:16:02;;;;;;;;;;;;;;;31.38;56.82;100849.94;5095452;27;69057;-37
2023/02/14 06:18:32;;;;;;;;;;;;;;;31.39;56.73;100848.88;5089947;27;66298;-38
2023/02/14 06:21:03;;;;;;;;;;;;;;;31.42;56.92;100844.91;5093520;27;69980;-37
2023/02/14 06:23:33;;;;;;;;;;;;;;;31.42;56.62;100843.00;5099183;27;66577;-37
2023/02/14 06:26:03;;;;;;;;;;;;;;;31.44;57.03;100842.78;5096493;27;70933;-36
2023/02/14 06:28:33;;;;;;;;;;;;;;;31.45;56.72;100829.00;5095634;27;66130;-36
2023/02/14 06:31:03;;;;;;;;;;;;;;;31.47;56.72;100826.91;5088315;27;69328;-37
2023/02/14 06:33:34;;;;;;;;;;;;;;;31.49;56.98;100816.66;5091389;27;67360;-36
2023/02/14 06:36:04;;;;;;;;;;;;;;;31.52;56.63;100815.38;5086788;27;70761;-36
2023/02/14 06:38:34;;;;;;;;;;;;;;;31.55;56.52;100802.19;5074344;28;66505;-37
2023/02/14 06:41:06;;;;;;;;;;;;;;;31.56;56.52;100793.00;5091068;27;69719;-37
2023/02/14 06:43:37;;;;;;;;;;;;;;;31.59;56.54;100780.88;5080387;27;66318;-37
2023/02/14 06:46:07;;;;;;;;;;;;;;;31.59;56.57;100781.72;5097751;27;70290;-37
2023/02/14 06:48:37;;;;;;;;;;;;;;;31.61;56.43;100779.59;5090926;27;66976;-36
2023/02/14 06:51:07;;;;;;;;;;;;;;;31.24;56.46;100712.91;5096286;27;70094;-37
2023/02/14 06:53:37;;;;;;;;;;;;;;;31.65;56.71;100762.88;5095653;27;65561;-38
2023/02/14 06:56:07;;;;;;;;;;;;;;;31.67;56.24;100760.75;5096257;27;69590;-37
2023/02/14 06:58:38;;;;;;;;;;;;;;;31.69;56.32;100761.38;5091528;27;67023;-36
2023/02/14 07:01:08;;;;;;;;;;;;;;;31.72;56.49;100752.78;5091369;27;70209;-37
2023/02/14 07:03:38;;;;;;;;;;;;;;;31.72;56.48;100753.59;5079876;27;67082;-36
2023/02/14 07:06:08;;;;;;;;;;;;;;;31.75;56.24;100746.88;5081955;27;69705;-36
2023/02/14 07:08:39;;;;;;;;;;;;;;;31.77;56.09;100744.78;5097655;27;66037;-36
2023/02/14 07:11:09;;;;;;;;;;;;;;;31.79;55.91;100742.69;5097927;27;69636;-37
2023/02/14 07:13:39;;;;;;;;;;;;;;;31.80;55.89;100730.75;5095992;27;67043;-36
2023/02/14 07:16:09;;;;;;;;;;;;;;;31.81;55.83;100726.97;5073613;27;69232;-37
2023/02/14 07:18:39;;;;;;;;;;;;;;;31.82;55.97;100728.66;5076833;27;65305;-36
2023/02/14 07:21:09;;;;;;;;;;;;;;;31.85;56.08;100728.19;5096552;27;70545;-36
2023/02/14 07:23:40;;;;;;;;;;;;;;;31.87;55.84;100723.34;5081543;27;66834;-38
2023/02/14 07:26:10;;;;;;;;;;;;;;;31.90;56.03;100717.47;5089012;27;70558;-37
2023/02/14 07:28:41;;;;;;;;;;;;;;;31.92;56.07;100709.13;5092499;27;65982;-37
2023/02/14 07:31:12;;;;;;;;;;;;;;;31.93;56.21;100714.31;5075818;27;69791;-38
2023/02/14 07:33:43;;;;;;;;;;;;;;;31.96;55.87;100708.44;5089024;27;66281;-36
2023/02/14 07:36:13;;;;;;;;;;;;;;;31.98;56.08;100703.63;5090236;27;69512;-38
2023/02/14 07:38:43;;;;;;;;;;;;;;;32.01;55.75;100695.00;5069752;27;66168;-37
2023/02/14 07:41:14;;;;;;;;;;;;;;;32.05;55.85;100688.03;5098747;27;69288;-36
2023/02/14 07:43:44;;;;;;;;;;;;;;;32.07;55.67;100681.53;5077635;27;66751;-35
2023/02/14 07:46:16;;;;;;;;;;;;;;;32.11;55.58;100685.47;5076632;27;70506;-37
2023/02/14 07:48:47;;;;;;;;;;;;;;;32.13;55.75;100684.16;5097840;27;67344;-36
2023/02/14 07:51:18;;;;;;;;;;;;;;;32.18;55.73;100675.31;5085474;27;70593;-38
2023/02/14 07:53:48;;;;;;;;;;;;;;;32.20;55.65;100673.19;5093572;27;65959;-37
2023/02/14 07:56:18;;;;;;;;;;;;;;;32.22;55.71;100671.91;5079780;27;69416;-37
2023/02/14 07:58:48;;;;;;;;;;;;;;;32.26;55.42;100672.25;5088034;27;66404;-36
2023/02/14 08:01:19;;;;;;;;;;;;;;;32.30;55.52;100672.63;5092136;27;69777;-36
2023/02/14 08:03:50;;;;;;;;;;;;;;;32.32;55.56;100665.91;5078922;27;66519;-37
2023/02/14 08:06:20;;;;;;;;;;;;;;;32.34;55.39;100669.19;5082539;27;69107;-38
2023/02/14 08:08:51;;;;;;;;;;;;;;;32.37;55.44;100657.84;5074145;27;64640;-37
2023/02/14 08:14:10;;;;;;;;;;;;;;;32.44;55.28;100665.91;5093779;27;65706;-37
2023/02/14 08:16:41;;;;;;;;;;;;;;;32.46;55.41;100659.19;5097504;27;69207;-36
2023/02/14 08:19:11;;;;;;;;;;;;;;;32.49;55.37;100661.44;5090286;27;66847;-39
2023/02/14 08:21:42;;;;;;;;;;;;;;;32.53;55.45;100663.69;5088570;27;69762;-38
2023/02/14 08:24:12;;;;;;;;;;;;;;;32.55;55.21;100658.84;5090730;27;65385;-37
2023/02/14 08:26:42;;;;;;;;;;;;;;;32.56;55.38;100660.50;5093827;27;70417;-36
2023/02/14 08:29:12;;;;;;;;;;;;;;;32.60;55.26;100656.25;5099804;27;66862;-39
2023/02/14 08:31:46;;;;;;;;;;;;;;;32.60;55.24;100658.97;5096003;27;70593;-39
2023/02/14 08:34:16;;;;;;;;;;;;;;;32.63;55.28;100656.59;5080484;27;67020;-37
2023/02/14 08:36:46;;;;;;;;;;;;;;;32.64;55.23;100657.41;5096822;27;69128;-36
2023/02/14 08:39:16;;;;;;;;;;;;;;;32.65;55.25;100659.91;5094063;27;65594;-38
2023/02/14 08:41:47;;;;;;;;;;;;;;;32.67;55.25;100667.81;5092839;27;69651;-38
2023/02/14 08:44:17;;;;;;;;;;;;;;;32.66;55.36;100669.69;5091260;27;65374;-36
2023/02/14 08:46:47;;;;;;;;;;;;;;;32.67;55.48;100667.81;5077762;27;70000;-37
2023/02/14 08:49:19;;;;;;;;;;;;;;;32.65;55.48;100664.50;5088433;27;66717;-38
2023/02/14 08:51:49;;;;;;;;;;;;;;;32.68;55.36;100664.00;5098709;27;69626;-37
2023/02/14 08:54:19;;;;;;;;;;;;;;;32.68;55.54;100661.28;5094900;27;66848;-37
2023/02/14 08:56:49;;;;;;;;;;;;;;;32.70;55.41;100672.75;5081230;27;69851;-38
2023/02/14 08:59:20;;;;;;;;;;;;;;;32.70;55.57;100672.75;5090688;27;66045;-38
2023/02/14 09:01:50;;;;;;;;;;;;;;;32.70;55.57;100672.75;5095984;27;70286;-36
2023/02/14 09:04:21;;;;;;;;;;;;;;;32.71;55.48;100680.69;5099251;27;66780;-37
2023/02/14 09:06:51;;;;;;;;;;;;;;;32.72;55.71;100676.06;5088115;27;71050;-38
2023/02/14 09:09:21;;;;;;;;;;;;;;;32.72;55.69;100681.50;5098446;27;66926;-36
2023/02/14 09:11:51;;;;;;;;;;;;;;;32.72;55.56;100681.50;5096974;27;69376;-36
2023/02/14 09:14:23;;;;;;;;;;;;;;;32.56;56.81;100684.94;5100628;27;67007;-38
2023/02/14 09:16:53;;;;;;;;;;;;;;;32.35;57.95;100692.56;5092439;27;69177;-38
2023/02/14 09:19:23;;;;;;;;;;;;;;;32.21;58.88;100693.88;5093068;27;65672;-37
2023/02/14 09:21:53;;;;;;;;;;;;;;;32.10;59.68;100700.09;5087189;27;70321;-38
2023/02/14 09:24:24;;;;;;;;;;;;;;;32.00;60.05;100701.47;5094130;27;66945;-37
2023/02/14 09:26:56;;;;;;;;;;;;;;;31.96;60.43;100694.88;5066759;27;69906;-38
2023/02/14 09:29:26;;;;;;;;;;;;;;;31.91;60.59;100696.59;5075935;27;66713;-39
2023/02/14 09:31:58;;;;;;;;;;;;;;;31.87;60.92;100696.22;5093633;27;69750;-38
2023/02/14 09:37:17;;;;;;;;;;;;;;;31.85;61.24;100697.53;5089032;27;70113;-37
2023/02/14 09:39:47;;;;;;;;;;;;;;;31.81;61.28;100710.69;5087802;27;65604;-39
2023/02/14 09:42:22;;;;;;;;;;;;;;;31.80;61.55;100706.34;5089952;27;70269;-39
2023/02/14 09:45:12;;;;;;;;;;;;;;;31.77;61.45;100706.81;5092973;27;65608;-39
2023/02/14 09:47:51;;;;;;;;;;;;;;;31.73;61.94;100706.44;5091106;27;70075;-39
2023/02/14 09:50:40;;;;;;;;;;;;;;;31.73;61.89;100711.03;5093351;27;65645;-40
2023/02/14 09:53:27;;;;;;;;;;;;;;;31.73;62.52;100716.44;5092004;27;70227;-41
2023/02/14 09:56:20;;;;;;;;;;;;;;;31.72;62.58;100714.81;5089023;27;64328;-40
2023/02/14 09:58:50;;;;;;;;;;;;;;;31.71;62.89;100713.16;5089423;27;70308;-39
2023/02/14 10:01:21;;;;;;;;;;;;;;;31.68;63.22;100711.72;5094860;27;68190;-39
2023/02/14 10:04:01;;;;;;;;;;;;;;;31.69;63.13;100704.41;5093577;27;69486;-40
2023/02/14 10:06:39;;;;;;;;;;;;;;;31.68;63.58;100713.59;5091893;27;66383;-39
2023/02/14 10:09:27;;;;;;;;;;;;;;;31.67;63.40;100709.25;5093321;27;70068;-39
2023/02/14 10:11:59;;;;;;;;;;;;;;;31.67;63.56;100711.94;5094907;27;67322;-40
2023/02/14 10:14:32;;;;;;;;;;;;;;;31.66;63.26;100715.72;5072538;27;68175;-41
2023/02/14 10:17:13;;;;;;;;;;;;;;;31.66;63.34;100713.84;5093867;27;66301;-38
2023/02/14 10:20:07;;;;;;;;;;;;;;;31.63;63.72;100706.16;5090921;27;70235;-39
2023/02/14 10:22:41;;;;;;;;;;;;;;;31.64;64.14;100717.84;5068390;27;66076;-38
2023/02/14 10:25:21;;;;;;;;;;;;;;;31.62;63.80;100723.47;5089847;27;68617;-38
2023/02/14 10:27:52;;;;;;;;;;;;;;;31.61;63.72;100714.53;5094899;27;66437;-39
2023/02/14 10:30:23;;;;;;;;;;;;;;;31.63;63.73;100716.19;5073702;27;69339;-39
2023/02/14 10:32:56;;;;;;;;;;;;;;;31.76;63.41;100729.53;5091241;27;66772;-41
2023/02/14 10:35:45;;;;;;;;;;;;;;;31.86;62.51;100729.81;5095146;27;70873;-38
2023/02/14 10:38:18;;;;;;;;;;;;;;;31.93;61.72;100733.31;5092257;27;66344;-39
2023/02/14 10:40:58;;;;;;;;;;;;;;;31.97;61.15;100739.91;5093891;27;70459;-39
2023/02/14 10:43:44;;;;;;;;;;;;;;;32.02;60.99;100748.19;5092971;27;65835;-39
2023/02/14 10:46:34;;;;;;;;;;;;;;;32.04;60.74;100756.94;5094263;27;70430;-41
2023/02/14 10:49:14;;;;;;;;;;;;;;;32.04;60.52;100748.81;5091699;27;66284;-39
2023/02/14 10:52:03;;;;;;;;;;;;;;;32.06;60.25;100748.56;5070577;27;69084;-40
2023/02/14 10:54:42;;;;;;;;;;;;;;;32.07;60.29;100749.38;5069673;27;65388;-39
2023/02/14 10:57:18;;;;;;;;;;;;;;;31.64;60.33;100688.00;5093406;27;70008;-40
2023/02/14 10:59:52;;;;;;;;;;;;;;;32.07;60.21;100760.22;5091173;27;66846;-39
2023/02/14 11:02:39;;;;;;;;;;;;;;;32.07;59.94;100762.94;5090277;27;69779;-41
2023/02/14 11:05:22;;;;;;;;;;;;;;;32.05;59.93;100768.63;5080103;27;66904;-40
2023/02/14 11:07:52;;;;;;;;;;;;;;;32.04;59.92;100770.50;5100128;27;69118;-38
2023/02/14 11:10:30;;;;;;;;;;;;;;;32.03;59.92;100771.53;5081881;27;66202;-41
2023/02/14 11:13:02;;;;;;;;;;;;;;;32.02;59.88;100767.19;5086651;27;70418;-39
2023/02/14 11:15:38;;;;;;;;;;;;;;;32.01;59.91;100770.97;5092781;27;66483;-39
2023/02/14 11:18:22;;;;;;;;;;;;;;;31.99;59.63;100773.09;5089776;27;70095;-39
2023/02/14 11:21:03;;;;;;;;;;;;;;;31.99;59.71;100764.13;5091943;27;66922;-39
2023/02/14 11:23:35;;;;;;;;;;;;;;;31.97;59.56;100758.91;5091103;27;69828;-40
2023/02/14 11:26:15;;;;;;;;;;;;;;;31.95;59.50;100769.16;5069095;27;65278;-40
2023/02/14 11:29:12;;;;;;;;;;;;;;;31.95;59.62;100774.59;5047931;27;70420;-41
2023/02/14 11:31:42;;;;;;;;;;;;;;;31.95;59.66;100784.63;5064052;27;66977;-39
2023/02/14 11:34:38;;;;;;;;;;;;;;;31.93;59.82;100792.16;5082157;27;69264;-39
2023/02/14 11:37:35;;;;;;;;;;;;;;;31.91;59.71;100789.69;5078695;27;65651;-39
2023/02/14 11:40:06;;;;;;;;;;;;;;;31.90;59.67;100788.00;5078293;27;69987;-39
2023/02/14 11:42:36;;;;;;;;;;;;;;;31.90;59.66;100790.72;5085757;27;67115;-40
2023/02/14 11:45:10;;;;;;;;;;;;;;;31.89;59.70;100796.34;5079410;27;69867;-39
2023/02/14 11:47:41;;;;;;;;;;;;;;;31.86;59.63;100794.94;5081103;27;66709;-40
2023/02/14 11:50:23;;;;;;;;;;;;;;;31.86;59.71;100786.78;5083602;27;70723;-41
2023/02/14 11:52:55;;;;;;;;;;;;;;;31.84;59.93;100791.59;5085172;27;66032;-40
2023/02/14 11:55:27;;;;;;;;;;;;;;;31.80;60.12;100793.13;5081897;27;69958;-40
2023/02/14 11:57:58;;;;;;;;;;;;;;;31.81;60.13;100789.34;5075929;27;66881;-39
2023/02/14 12:00:30;;;;;;;;;;;;;;;31.79;59.96;100797.75;5084914;27;70836;-40
2023/02/14 12:03:03;;;;;;;;;;;;;;;31.79;60.11;100791.50;5091339;27;66415;-39
2023/02/14 12:05:44;;;;;;;;;;;;;;;31.77;59.93;100791.72;5081926;27;70031;-39
2023/02/14 12:08:22;;;;;;;;;;;;;;;31.73;59.94;100785.09;5093388;27;66646;-38
2023/02/14 12:11:16;;;;;;;;;;;;;;;31.73;60.18;100785.09;5086469;27;70488;-39
2023/02/14 12:13:56;;;;;;;;;;;;;;;31.73;60.21;100781.53;5095311;27;66856;-39
2023/02/14 12:16:34;;;;;;;;;;;;;;;31.68;60.43;100778.69;5098748;27;70209;-40
2023/02/14 12:19:16;;;;;;;;;;;;;;;31.65;60.42;100779.13;5098794;27;65996;-41
2023/02/14 12:21:50;;;;;;;;;;;;;;;31.66;60.36;100781.63;5093497;27;70838;-39
2023/02/14 12:24:29;;;;;;;;;;;;;;;31.67;60.83;100790.59;5089449;27;66947;-40
2023/02/14 12:27:18;;;;;;;;;;;;;;;31.45;62.88;100791.03;5097068;27;69122;-38
2023/02/14 12:29:48;;;;;;;;;;;;;;;31.24;64.21;100791.50;5093571;27;66985;-39
2023/02/14 12:32:24;;;;;;;;;;;;;;;31.14;65.11;100800.94;5093414;27;68889;-38
2023/02/14 12:35:14;;;;;;;;;;;;;;;31.09;66.29;100814.34;5088100;27;66492;-39
2023/02/14 12:38:22;;;;;;;;;;;;;;;31.09;67.12;100824.34;5093461;27;70326;-39
2023/02/14 12:40:58;;;;;;;;;;;;;;;31.07;67.13;100832.72;5040593;28;66037;-40
2023/02/14 12:43:39;;;;;;;;;;;;;;;31.05;67.36;100848.34;5035072;28;69689;-40
2023/02/14 12:46:20;;;;;;;;;;;;;;;31.05;67.02;100845.63;5054457;27;66188;-40
2023/02/14 12:49:08;;;;;;;;;;;;;;;31.04;67.49;100849.41;5089622;27;70223;-40
2023/02/14 12:51:43;;;;;;;;;;;;;;;31.03;67.17;100849.63;5090386;27;66460;-39
2023/02/14 12:54:32;;;;;;;;;;;;;;;31.03;66.80;100846.91;5089019;27;70265;-38
2023/02/14 12:57:21;;;;;;;;;;;;;;;31.03;67.17;100855.88;5092926;27;65562;-38
2023/02/14 13:00:13;;;;;;;;;;;;;;;31.03;67.23;100855.03;5092789;27;69867;-39
2023/02/14 13:03:14;;;;;;;;;;;;;;;31.03;67.40;100852.34;5091150;27;66678;-37
2023/02/14 13:05:49;;;;;;;;;;;;;;;30.87;64.49;100853.72;5086984;27;69923;-41
2023/02/14 13:08:33;;;;;;;;;;;;;;;30.62;61.93;100849.09;5063437;27;66316;-40
2023/02/14 13:11:10;;;;;;;;;;;;;;;30.45;59.71;100856.06;5092388;27;70111;-39
2023/02/14 13:13:47;;;;;;;;;;;;;;;30.33;59.07;100847.00;5094892;27;65774;-40
2023/02/14 13:16:23;;;;;;;;;;;;;;;30.23;58.34;100836.66;5098621;27;69266;-41
2023/02/14 13:19:11;;;;;;;;;;;;;;;30.16;57.72;100849.34;5098552;27;65472;-41
2023/02/14 13:21:43;;;;;;;;;;;;;;;30.03;56.51;100847.53;5096578;27;70550;-40
2023/02/14 13:24:19;;;;;;;;;;;;;;;29.93;55.46;100842.59;5097155;27;65764;-45
2023/02/14 13:26:54;;;;;;;;;;;;;;;29.87;55.28;100842.63;5097300;27;69325;-39
2023/02/14 13:29:26;;;;;;;;;;;;;;;29.81;55.12;100842.44;5095629;27;65816;-40
2023/02/14 13:31:57;;;;;;;;;;;;;;;29.71;55.32;100844.75;5094169;27;69341;-41
2023/02/14 13:34:31;;;;;;;;;;;;;;;29.66;54.55;100855.38;5092510;27;65419;-41